createdAt,value
2019-03-26T00:02:24.690Z,25.97
2019-03-26T00:04:54.735Z,23.53
2019-03-26T00:07:24.727Z,22.53
2019-03-26T00:09:54.687Z,20.77
2019-03-26T00:12:24.692Z,20.37
2019-03-26T00:14:54.708Z,18.80
2019-03-26T00:17:24.694Z,19.37
2019-03-26T00:19:54.806Z,18.73
2019-03-26T00:22:24.817Z,18.17
2019-03-26T00:24:54.812Z,17.67
2019-03-26T00:27:24.885Z,17.43
2019-03-26T00:29:54.948Z,18.20
2019-03-26T00:32:25.202Z,18.23
2019-03-26T00:34:55.204Z,17.90
2019-03-26T00:37:25.223Z,16.13
2019-03-26T00:39:55.224Z,14.63
2019-03-26T00:42:25.245Z,15.27
2019-03-26T00:44:55.343Z,15.27
2019-03-26T00:47:25.383Z,15.93
2019-03-26T00:49:55.400Z,14.27
2019-03-26T00:52:25.446Z,14.23
2019-03-26T00:54:55.455Z,15.53
2019-03-26T00:57:25.470Z,13.97
2019-03-26T00:59:55.534Z,14.57
2019-03-26T01:02:25.622Z,14.17
2019-03-26T01:04:55.629Z,12.87
2019-03-26T01:07:25.684Z,14.83
2019-03-26T01:09:55.747Z,13.47
2019-03-26T01:12:26.101Z,13.37
2019-03-26T01:14:56.072Z,14.40
2019-03-26T01:17:26.114Z,14.33
2019-03-26T01:19:56.106Z,12.83
2019-03-26T01:22:26.142Z,14.00
2019-03-26T01:24:56.176Z,13.23
2019-03-26T01:27:26.170Z,13.90
2019-03-26T01:29:56.549Z,14.67
2019-03-26T01:32:26.676Z,13.47
2019-03-26T01:34:56.668Z,14.03
2019-03-26T01:37:26.660Z,13.43
2019-03-26T01:39:56.658Z,13.83
2019-03-26T01:42:27.126Z,13.23
2019-03-26T01:44:57.118Z,13.23
2019-03-26T01:47:27.131Z,11.97
2019-03-26T01:49:57.172Z,12.83
2019-03-26T01:52:27.171Z,12.80
2019-03-26T01:54:57.352Z,12.77
2019-03-26T01:57:27.790Z,13.00
2019-03-26T01:59:57.920Z,12.60
2019-03-26T02:02:27.993Z,14.10
2019-03-26T02:05:00.139Z,15.53
2019-03-26T02:07:30.097Z,14.50
2019-03-26T02:10:00.077Z,15.63
2019-03-26T02:12:30.125Z,14.83
2019-03-26T02:15:00.371Z,13.93
2019-03-26T02:17:30.423Z,13.67
2019-03-26T02:20:00.433Z,13.83
2019-03-26T02:22:30.502Z,12.87
2019-03-26T02:25:00.509Z,12.50
2019-03-26T02:27:30.510Z,12.97
2019-03-26T02:30:00.562Z,13.03
2019-03-26T02:32:30.601Z,12.80
2019-03-26T02:35:16.363Z,11.80
2019-03-26T02:37:32.368Z,12.07
2019-03-26T02:40:02.365Z,12.80
2019-03-26T02:42:32.379Z,12.63
2019-03-26T02:45:02.388Z,12.17
2019-03-26T02:47:32.382Z,12.30
2019-03-26T02:50:02.378Z,11.93
2019-03-26T02:52:32.430Z,11.43
2019-03-26T02:55:02.440Z,11.07
2019-03-26T02:57:32.426Z,11.00
2019-03-26T03:00:02.449Z,11.37
2019-03-26T03:02:32.457Z,10.60
2019-03-26T03:05:02.457Z,10.70
2019-03-26T03:07:32.557Z,10.83
2019-03-26T03:10:02.518Z,10.47
2019-03-26T03:12:32.510Z,10.40
2019-03-26T03:15:02.559Z,11.90
2019-03-26T03:17:32.611Z,11.53
2019-03-26T03:20:02.660Z,10.13
2019-03-26T03:22:32.732Z,11.53
2019-03-26T03:25:02.723Z,12.13
2019-03-26T03:27:32.741Z,11.73
2019-03-26T03:30:02.832Z,11.47
2019-03-26T03:32:32.859Z,12.17
2019-03-26T03:35:03.231Z,11.07
2019-03-26T03:37:33.270Z,12.33
2019-03-26T03:40:03.295Z,12.00
2019-03-26T03:42:33.266Z,11.33
2019-03-26T03:45:03.304Z,11.80
2019-03-26T03:47:37.330Z,12.93
2019-03-26T03:50:08.393Z,11.90
2019-03-26T03:52:42.521Z,11.67
2019-03-26T03:55:13.276Z,12.03
2019-03-26T03:57:43.278Z,12.50
2019-03-26T04:00:34.455Z,12.77
2019-03-26T04:03:04.627Z,11.80
2019-03-26T04:05:34.658Z,11.27
2019-03-26T04:08:04.700Z,11.37
2019-03-26T04:10:34.769Z,11.73
2019-03-26T04:13:04.837Z,12.63
2019-03-26T04:15:35.412Z,12.40
2019-03-26T04:18:05.746Z,11.83
2019-03-26T04:20:35.844Z,13.07
2019-03-26T04:23:07.191Z,11.57
2019-03-26T04:25:37.187Z,12.63
2019-03-26T04:28:07.225Z,13.27
2019-03-26T04:30:37.254Z,13.57
2019-03-26T04:33:07.443Z,11.77
2019-03-26T04:35:37.428Z,12.40
2019-03-26T04:38:07.469Z,12.63
2019-03-26T04:40:37.495Z,12.70
2019-03-26T04:43:07.481Z,14.53
2019-03-26T04:45:37.520Z,12.37
2019-03-26T04:48:07.578Z,13.50
2019-03-26T04:50:37.698Z,13.20
2019-03-26T04:53:07.662Z,13.43
2019-03-26T04:55:37.718Z,12.87
2019-03-26T04:58:07.792Z,13.57
2019-03-26T05:00:37.781Z,13.70
2019-03-26T05:03:07.805Z,14.63
2019-03-26T05:05:37.828Z,15.13
2019-03-26T05:08:07.884Z,14.90
2019-03-26T05:10:37.870Z,15.17
2019-03-26T05:13:07.869Z,15.27
2019-03-26T05:15:37.904Z,16.63
2019-03-26T05:18:07.933Z,17.27
2019-03-26T05:20:38.085Z,17.03
2019-03-26T05:23:08.076Z,16.23
2019-03-26T05:25:38.103Z,15.70
2019-03-26T05:28:08.113Z,16.00
2019-03-26T05:30:38.118Z,17.63
2019-03-26T05:33:08.261Z,16.50
2019-03-26T05:35:38.252Z,17.23
2019-03-26T05:38:08.267Z,16.83
2019-03-26T05:40:38.270Z,21.03
2019-03-26T05:43:08.313Z,18.90
2019-03-26T05:45:38.281Z,18.17
2019-03-26T05:48:08.280Z,17.33
2019-03-26T05:50:38.339Z,15.00
2019-03-26T05:53:08.300Z,15.77
2019-03-26T05:55:38.376Z,14.90
2019-03-26T05:58:08.434Z,15.70
2019-03-26T06:00:38.435Z,15.77
2019-03-26T06:03:08.436Z,16.73
2019-03-26T06:05:38.501Z,15.03
2019-03-26T06:08:08.520Z,14.73
2019-03-26T06:10:38.531Z,14.63
2019-03-26T06:13:08.568Z,15.10
2019-03-26T06:15:38.567Z,17.43
2019-03-26T06:18:08.575Z,18.20
2019-03-26T06:20:38.558Z,19.67
2019-03-26T06:23:08.517Z,18.30
2019-03-26T06:25:38.551Z,16.23
2019-03-26T06:28:08.533Z,16.63
2019-03-26T06:30:38.537Z,15.80
2019-03-26T06:33:08.571Z,16.33
2019-03-26T06:35:38.540Z,16.57
2019-03-26T06:38:08.504Z,16.13
2019-03-26T06:40:38.545Z,17.70
2019-03-26T06:43:08.543Z,16.30
2019-03-26T06:45:38.547Z,14.77
2019-03-26T06:48:08.583Z,17.27
2019-03-26T06:50:38.646Z,13.57
2019-03-26T06:53:08.632Z,17.63
2019-03-26T06:55:38.676Z,19.77
2019-03-26T06:58:08.661Z,21.87
2019-03-26T07:00:38.689Z,23.20
2019-03-26T07:03:08.679Z,19.40
2019-03-26T07:05:38.791Z,17.37
2019-03-26T07:08:08.869Z,18.30
2019-03-26T07:10:38.850Z,17.40
2019-03-26T07:13:08.843Z,13.17
2019-03-26T07:15:38.867Z,11.33
2019-03-26T07:18:08.846Z,13.13
2019-03-26T07:20:38.900Z,13.30
2019-03-26T07:23:08.888Z,16.77
2019-03-26T07:25:39.718Z,16.53
2019-03-26T07:28:09.740Z,17.27
2019-03-26T07:30:41.366Z,15.53
2019-03-26T07:33:12.079Z,18.03
2019-03-26T07:35:42.313Z,20.17
2019-03-26T07:38:12.356Z,21.43
2019-03-26T07:40:42.384Z,24.30
2019-03-26T07:43:12.400Z,24.13
2019-03-26T07:45:42.436Z,27.63
2019-03-26T07:48:12.454Z,24.60
2019-03-26T07:50:42.505Z,23.43
2019-03-26T07:53:12.531Z,22.80
2019-03-26T07:55:43.873Z,23.57
2019-03-26T07:58:14.227Z,23.53
2019-03-26T08:00:44.237Z,18.23
2019-03-26T08:03:14.254Z,20.37
2019-03-26T08:05:44.292Z,16.17
2019-03-26T08:08:14.314Z,18.67
2019-03-26T08:10:44.312Z,20.10
2019-03-26T08:13:14.362Z,15.60
2019-03-26T08:15:44.385Z,14.43
2019-03-26T08:18:14.406Z,17.07
2019-03-26T08:20:44.380Z,14.47
2019-03-26T08:23:14.378Z,19.90
2019-03-26T08:25:44.391Z,17.30
2019-03-26T08:28:14.393Z,16.33
2019-03-26T08:30:44.380Z,21.73
2019-03-26T08:33:14.439Z,15.23
2019-03-26T08:35:44.449Z,19.30
2019-03-26T08:38:14.440Z,14.77
2019-03-26T08:40:44.451Z,11.90
2019-03-26T08:43:14.518Z,12.77
2019-03-26T08:45:44.518Z,15.13
2019-03-26T08:48:14.500Z,13.70
2019-03-26T08:50:44.521Z,12.30
2019-03-26T08:53:14.579Z,13.53
2019-03-26T08:55:44.573Z,14.33
2019-03-26T08:58:14.658Z,13.90
2019-03-26T09:00:44.648Z,12.83
2019-03-26T09:03:14.634Z,14.27
2019-03-26T09:05:44.717Z,11.50
2019-03-26T09:08:24.785Z,11.87
2019-03-26T09:10:51.657Z,11.23
2019-03-26T09:13:18.242Z,11.97
2019-03-26T09:15:48.239Z,12.53
2019-03-26T09:18:18.298Z,12.67
2019-03-26T09:20:48.286Z,15.13
2019-03-26T09:23:18.288Z,13.57
2019-03-26T09:25:48.329Z,14.13
2019-03-26T09:28:18.325Z,12.63
2019-03-26T09:30:48.305Z,12.97
2019-03-26T09:33:18.330Z,13.13
2019-03-26T09:35:48.331Z,13.87
2019-03-26T09:38:18.353Z,12.10
2019-03-26T09:40:48.363Z,14.10
2019-03-26T09:43:18.328Z,14.07
2019-03-26T09:45:48.370Z,15.53
2019-03-26T09:48:18.335Z,12.67
2019-03-26T09:50:48.335Z,14.23
2019-03-26T09:53:18.345Z,12.70
2019-03-26T09:55:48.324Z,13.50
2019-03-26T09:58:18.329Z,12.87
2019-03-26T10:00:48.440Z,12.97
2019-03-26T10:03:18.632Z,12.23
2019-03-26T10:05:48.643Z,12.73
2019-03-26T10:08:18.648Z,12.73
2019-03-26T10:10:48.650Z,11.63
2019-03-26T10:13:18.676Z,11.97
2019-03-26T10:15:48.654Z,12.97
2019-03-26T10:18:18.722Z,12.77
2019-03-26T10:20:48.760Z,14.30
2019-03-26T10:23:18.904Z,13.90
2019-03-26T10:25:49.178Z,12.13
2019-03-26T10:28:19.346Z,12.80
2019-03-26T10:30:49.467Z,11.87
2019-03-26T10:33:20.063Z,11.53
2019-03-26T10:35:50.105Z,11.80
2019-03-26T10:38:20.301Z,12.00
2019-03-26T10:40:50.346Z,12.17
2019-03-26T10:43:20.370Z,11.50
2019-03-26T10:45:50.500Z,10.80
2019-03-26T10:48:20.537Z,12.77
2019-03-26T10:50:50.608Z,11.40
2019-03-26T10:53:20.646Z,12.10
2019-03-26T10:55:50.661Z,12.50
2019-03-26T10:58:20.707Z,11.83
2019-03-26T11:00:50.735Z,11.87
2019-03-26T11:03:20.816Z,11.87
2019-03-26T11:05:50.921Z,10.47
2019-03-26T11:08:20.936Z,10.57
2019-03-26T11:10:50.992Z,10.30
2019-03-26T11:13:20.977Z,10.30
2019-03-26T11:15:50.969Z,10.10
2019-03-26T11:18:20.989Z,9.43
2019-03-26T11:21:01.770Z,10.07
2019-03-26T11:23:22.689Z,8.73
2019-03-26T11:25:52.695Z,9.60
2019-03-26T11:28:22.714Z,11.00
2019-03-26T11:30:52.734Z,10.17
2019-03-26T11:33:22.757Z,9.03
2019-03-26T11:35:52.739Z,8.90
2019-03-26T11:38:22.741Z,8.90
2019-03-26T11:40:52.781Z,8.93
2019-03-26T11:43:22.793Z,9.00
2019-03-26T11:45:52.781Z,10.17
2019-03-26T11:48:22.782Z,9.13
2019-03-26T11:50:52.839Z,8.43
2019-03-26T11:53:22.819Z,8.50
2019-03-26T11:55:52.809Z,9.20
2019-03-26T11:58:30.422Z,8.80
2019-03-26T12:00:54.577Z,9.70
2019-03-26T12:03:24.551Z,10.73
2019-03-26T12:05:54.619Z,11.00
2019-03-26T12:08:24.650Z,15.23
2019-03-26T12:10:54.664Z,10.90
2019-03-26T12:13:24.685Z,11.03
2019-03-26T12:15:54.699Z,12.27
2019-03-26T12:18:26.733Z,12.47
2019-03-26T12:20:56.779Z,13.13
2019-03-26T12:23:26.808Z,14.37
2019-03-26T12:25:56.924Z,18.47
2019-03-26T12:28:26.951Z,14.63
2019-03-26T12:30:56.961Z,15.27
2019-03-26T12:33:26.951Z,13.77
2019-03-26T12:35:57.978Z,15.60
2019-03-26T12:38:28.823Z,10.57
2019-03-26T12:40:58.806Z,9.60
2019-03-26T12:43:28.818Z,6.07
2019-03-26T12:46:01.697Z,7.03
2019-03-26T12:48:30.450Z,5.27
2019-03-26T12:51:00.482Z,4.27
2019-03-26T12:53:30.453Z,5.47
2019-03-26T12:56:00.434Z,4.20
2019-03-26T12:58:32.192Z,4.73
2019-03-26T13:01:02.105Z,4.47
2019-03-26T13:03:32.110Z,4.17
2019-03-26T13:06:02.137Z,4.80
2019-03-26T13:08:32.122Z,4.03
2019-03-26T13:11:02.125Z,3.60
2019-03-26T13:13:32.081Z,4.97
2019-03-26T13:16:02.148Z,3.67
2019-03-26T13:18:32.127Z,3.10
2019-03-26T13:21:02.175Z,2.80
2019-03-26T13:23:32.170Z,3.40
2019-03-26T13:26:02.172Z,3.10
2019-03-26T13:28:32.222Z,3.10
2019-03-26T13:31:02.247Z,4.07
2019-03-26T13:33:32.232Z,3.87
2019-03-26T13:36:02.256Z,3.00
2019-03-26T13:38:32.307Z,6.43
2019-03-26T13:41:02.368Z,5.37
2019-03-26T13:43:32.403Z,4.07
2019-03-26T13:46:02.806Z,5.53
2019-03-26T13:48:32.895Z,4.43
2019-03-26T13:51:05.028Z,4.30
2019-03-26T13:53:35.097Z,4.17
2019-03-26T13:56:05.401Z,5.03
2019-03-26T13:58:35.499Z,4.80
2019-03-26T14:01:05.504Z,5.90
2019-03-26T14:03:35.873Z,5.07
2019-03-26T14:06:06.515Z,5.53
2019-03-26T14:08:36.494Z,5.60
2019-03-26T14:11:06.578Z,4.40
2019-03-26T14:13:36.636Z,5.17
2019-03-26T14:16:06.685Z,5.27
2019-03-26T14:18:36.695Z,4.83
2019-03-26T14:21:06.737Z,5.30
2019-03-26T14:23:36.759Z,5.60
2019-03-26T14:26:06.806Z,6.13
2019-03-26T14:28:36.862Z,6.33
2019-03-26T14:31:06.858Z,7.10
2019-03-26T14:33:36.838Z,4.80
2019-03-26T14:36:06.847Z,5.37
2019-03-26T14:38:36.965Z,6.00
2019-03-26T14:41:07.128Z,5.57
2019-03-26T14:43:37.107Z,4.60
2019-03-26T14:46:07.090Z,4.53
2019-03-26T14:48:37.116Z,5.00
2019-03-26T14:51:07.125Z,5.83
2019-03-26T14:53:37.151Z,6.13
2019-03-26T14:56:07.185Z,5.77
2019-03-26T14:58:37.198Z,1.90
2019-03-26T15:01:07.168Z,1.57
2019-03-26T15:03:37.196Z,1.33
2019-03-26T15:06:07.224Z,1.53
2019-03-26T15:08:37.261Z,1.40
2019-03-26T15:11:08.532Z,2.10
2019-03-26T15:13:38.636Z,2.30
2019-03-26T15:16:08.671Z,2.33
2019-03-26T15:18:38.650Z,3.50
2019-03-26T15:21:08.617Z,4.50
2019-03-26T15:23:38.652Z,4.40
2019-03-26T15:26:08.617Z,4.43
2019-03-26T15:28:40.934Z,4.27
2019-03-26T15:31:10.962Z,3.50
2019-03-26T15:33:40.954Z,4.10
2019-03-26T15:36:10.980Z,3.83
2019-03-26T15:38:41.030Z,4.27
2019-03-26T15:41:20.978Z,21.67
2019-03-26T15:43:42.647Z,22.47
2019-03-26T15:46:12.693Z,30.73
2019-03-26T15:48:42.678Z,18.60
2019-03-26T15:51:12.979Z,24.90
2019-03-26T15:53:43.029Z,12.53
2019-03-26T15:56:13.018Z,10.53
2019-03-26T15:58:43.032Z,11.80
2019-03-26T16:01:13.059Z,8.10
2019-03-26T16:03:43.115Z,6.63
2019-03-26T16:06:13.088Z,5.50
2019-03-26T16:08:43.137Z,5.40
2019-03-26T16:11:13.234Z,6.97
2019-03-26T16:13:43.240Z,7.07
2019-03-26T16:16:13.888Z,7.27
2019-03-26T16:18:43.854Z,7.43
2019-03-26T16:21:13.838Z,6.03
2019-03-26T16:23:43.912Z,7.63
2019-03-26T16:26:13.927Z,7.63
2019-03-26T16:28:43.903Z,7.80
2019-03-26T16:31:13.982Z,6.47
2019-03-26T16:33:44.029Z,5.07
2019-03-26T16:36:14.061Z,6.13
2019-03-26T16:38:44.100Z,6.30
2019-03-26T16:41:14.127Z,4.33
2019-03-26T16:43:44.148Z,5.43
2019-03-26T16:46:14.171Z,4.53
2019-03-26T16:48:44.171Z,6.10
2019-03-26T16:51:14.170Z,6.00
2019-03-26T16:53:44.198Z,6.23
2019-03-26T16:56:14.177Z,7.60
2019-03-26T16:58:44.167Z,7.60
2019-03-26T17:01:14.189Z,7.57
2019-03-26T17:03:44.180Z,7.43
2019-03-26T17:06:14.271Z,7.67
2019-03-26T17:08:44.360Z,12.27
2019-03-26T17:11:14.549Z,10.53
2019-03-26T17:13:44.569Z,11.47
2019-03-26T17:16:14.602Z,11.03
2019-03-26T17:18:45.682Z,11.37
2019-03-26T17:21:18.241Z,10.43
2019-03-26T17:23:47.352Z,10.63
2019-03-26T17:26:17.423Z,9.17
2019-03-26T17:28:47.485Z,9.53
2019-03-26T17:31:17.505Z,9.40
2019-03-26T17:33:47.489Z,9.93
2019-03-26T17:36:17.813Z,9.70
2019-03-26T17:38:47.962Z,12.03
2019-03-26T17:41:17.971Z,11.90
2019-03-26T17:43:47.960Z,10.00
2019-03-26T17:46:17.989Z,9.53
2019-03-26T17:48:47.989Z,9.47
2019-03-26T17:51:18.026Z,10.77
2019-03-26T17:53:48.013Z,11.27
2019-03-26T17:56:18.035Z,10.47
2019-03-26T17:58:48.021Z,9.97
2019-03-26T18:01:18.080Z,7.77
2019-03-26T18:03:48.685Z,13.93
2019-03-26T18:06:18.710Z,8.47
2019-03-26T18:08:48.699Z,43.23
2019-03-26T18:11:18.777Z,23.87
2019-03-26T18:13:48.774Z,7.90
2019-03-26T18:16:18.807Z,19.30
2019-03-26T18:18:48.839Z,11.90
2019-03-26T18:21:18.949Z,8.67
2019-03-26T18:23:48.944Z,6.53
2019-03-26T18:26:18.998Z,6.07
2019-03-26T18:28:49.019Z,6.07
2019-03-26T18:31:19.019Z,6.27
2019-03-26T18:33:49.122Z,6.17
2019-03-26T18:36:19.145Z,4.87
2019-03-26T18:38:49.153Z,5.00
2019-03-26T18:41:19.164Z,4.40
2019-03-26T18:43:49.184Z,4.90
2019-03-26T18:46:19.220Z,4.07
2019-03-26T18:48:49.228Z,7.07
2019-03-26T18:51:19.278Z,6.10
2019-03-26T18:53:49.343Z,21.17
2019-03-26T18:56:19.357Z,7.03
2019-03-26T18:58:49.370Z,6.30
2019-03-26T19:01:20.402Z,7.60
2019-03-26T19:03:50.387Z,6.77
2019-03-26T19:06:20.464Z,6.17
2019-03-26T19:08:50.487Z,6.97
2019-03-26T19:11:20.523Z,6.97
2019-03-26T19:13:50.558Z,6.00
2019-03-26T19:16:20.533Z,6.33
2019-03-26T19:18:50.537Z,5.90
2019-03-26T19:21:20.583Z,5.53
2019-03-26T19:24:03.024Z,6.77
2019-03-26T19:26:22.290Z,6.53
2019-03-26T19:28:52.306Z,7.00
2019-03-26T19:31:22.327Z,6.53
2019-03-26T19:33:52.512Z,7.27
2019-03-26T19:36:22.514Z,7.43
2019-03-26T19:38:52.545Z,6.90
2019-03-26T19:41:22.566Z,9.10
2019-03-26T19:43:52.623Z,10.03
2019-03-26T19:46:22.590Z,8.70
2019-03-26T19:48:52.608Z,7.07
2019-03-26T19:51:22.659Z,10.67
2019-03-26T19:53:52.686Z,9.27
2019-03-26T19:56:22.679Z,9.03
2019-03-26T19:58:52.733Z,10.90
2019-03-26T20:01:22.728Z,8.67
2019-03-26T20:03:52.729Z,7.73
2019-03-26T20:06:22.793Z,8.13
2019-03-26T20:08:52.884Z,9.10
2019-03-26T20:11:22.913Z,8.17
2019-03-26T20:13:53.279Z,9.50
2019-03-26T20:16:23.308Z,8.07
2019-03-26T20:18:53.338Z,10.77
2019-03-26T20:21:23.366Z,19.13
2019-03-26T20:23:53.397Z,8.53
2019-03-26T20:26:23.431Z,7.67
2019-03-26T20:28:53.427Z,7.37
2019-03-26T20:31:23.487Z,8.87
2019-03-26T20:33:53.485Z,5.90
2019-03-26T20:36:23.465Z,6.30
2019-03-26T20:38:53.519Z,6.27
2019-03-26T20:41:23.514Z,5.93
2019-03-26T20:43:53.544Z,7.33
2019-03-26T20:46:23.584Z,6.83
2019-03-26T20:48:53.577Z,5.40
2019-03-26T20:51:23.598Z,6.93
2019-03-26T20:53:53.631Z,8.97
2019-03-26T20:56:23.962Z,6.50
2019-03-26T20:58:53.966Z,4.90
2019-03-26T21:01:24.015Z,5.50
2019-03-26T21:03:54.072Z,7.40
2019-03-26T21:06:24.665Z,15.37
2019-03-26T21:08:55.074Z,8.63
2019-03-26T21:11:25.069Z,5.77
2019-03-26T21:13:55.147Z,7.67
2019-03-26T21:16:25.230Z,7.67
2019-03-26T21:18:55.249Z,6.77
2019-03-26T21:21:25.282Z,6.27
2019-03-26T21:23:55.352Z,5.67
2019-03-26T21:26:25.344Z,6.07
2019-03-26T21:28:55.337Z,4.90
2019-03-26T21:31:25.452Z,4.37
2019-03-26T21:33:55.569Z,4.00
2019-03-26T21:36:25.576Z,4.20
2019-03-26T21:38:55.668Z,5.17
2019-03-26T21:41:25.691Z,4.33
2019-03-26T21:44:04.315Z,5.70
2019-03-26T21:46:28.212Z,4.20
2019-03-26T21:48:58.213Z,4.60
2019-03-26T21:51:28.221Z,3.57
2019-03-26T21:53:58.334Z,4.80
2019-03-26T21:56:28.350Z,4.13
2019-03-26T21:58:58.349Z,4.37
2019-03-26T22:01:28.400Z,4.03
2019-03-26T22:03:58.508Z,3.90
2019-03-26T22:06:28.546Z,4.33
2019-03-26T22:08:58.596Z,4.67
2019-03-26T22:11:28.654Z,4.27
2019-03-26T22:13:58.670Z,3.50
2019-03-26T22:16:28.717Z,4.23
2019-03-26T22:18:58.805Z,4.03
2019-03-26T22:21:28.829Z,3.40
2019-03-26T22:23:58.811Z,3.73
2019-03-26T22:26:28.851Z,3.77
2019-03-26T22:28:58.952Z,3.83
2019-03-26T22:31:28.956Z,3.80
2019-03-26T22:33:58.991Z,3.87
2019-03-26T22:36:29.237Z,4.07
2019-03-26T22:38:59.343Z,3.80
2019-03-26T22:41:29.296Z,3.53
2019-03-26T22:43:59.324Z,4.30
2019-03-26T22:46:29.359Z,3.60
2019-03-26T22:48:59.386Z,3.50
2019-03-26T22:51:29.462Z,3.30
2019-03-26T22:53:59.477Z,3.90
2019-03-26T22:56:29.621Z,3.90
2019-03-26T22:58:59.646Z,4.03
2019-03-26T23:01:29.878Z,4.80
2019-03-26T23:03:59.897Z,4.23
2019-03-26T23:06:29.975Z,4.43
2019-03-26T23:09:00.087Z,3.90
2019-03-26T23:11:30.217Z,3.23
2019-03-26T23:14:00.277Z,3.03
2019-03-26T23:16:30.370Z,3.20
2019-03-26T23:19:00.447Z,3.07
2019-03-26T23:21:30.481Z,2.77
2019-03-26T23:24:01.333Z,3.07
2019-03-26T23:26:31.333Z,3.23
2019-03-26T23:29:01.408Z,2.97
2019-03-26T23:31:31.457Z,3.30
2019-03-26T23:34:01.426Z,3.50
2019-03-26T23:36:31.479Z,4.27
2019-03-26T23:39:01.496Z,3.60
2019-03-26T23:41:31.495Z,4.20
2019-03-26T23:44:01.536Z,4.43
2019-03-26T23:46:31.549Z,3.87
2019-03-26T23:49:01.627Z,4.50
2019-03-26T23:51:31.744Z,4.60
2019-03-26T23:54:01.777Z,3.70
2019-03-26T23:56:31.848Z,4.13
2019-03-26T23:59:01.872Z,4.13
